Sussex, Canada
Current Conditions -  °F | °C
As of 8:00 AM on Thursday 23 Oct 2014 (Local Time) from CYSJ Reporting Station
Overcast Overcast  
Wind Chill: 52°   Ceiling: 1300
Heat Index: 52°   Visibility: 10mi
Dew Point: 48°   Wind: 18mph
Humidity: 88%   Direction: 60°ENE
Pressure: 30.06"   Gusts: 30mph
Location:  45.72°N, 65.52°W
Report Text: CYSJ 231100Z 06016G26KT 10SM OVC013 11/09 A3006 RMK SF8 SLP181
Loading
Personal Weather Stations






























Interactive Weather Map
Tropical Storm Tracking
New forecast layout! Learn more

10-Day Weather Forecast

Advertisements
Track Severe Weather on mobile